createdAt,value
2018-12-13T00:00:40.569Z,6.67
2018-12-13T00:03:08.741Z,7.07
2018-12-13T00:05:36.912Z,7.17
2018-12-13T00:08:05.100Z,5.90
2018-12-13T00:10:33.260Z,6.13
2018-12-13T00:13:01.453Z,7.10
2018-12-13T00:15:31.973Z,7.40
2018-12-13T00:18:00.197Z,6.70
2018-12-13T00:20:28.421Z,7.27
2018-12-13T00:22:56.604Z,7.07
2018-12-13T00:25:24.757Z,6.43
2018-12-13T00:27:52.929Z,6.87
2018-12-13T00:30:21.120Z,7.43
2018-12-13T00:32:49.245Z,7.43
2018-12-13T00:35:17.451Z,8.00
2018-12-13T00:37:45.757Z,7.10
2018-12-13T00:40:13.905Z,6.83
2018-12-13T00:42:42.069Z,8.07
2018-12-13T00:45:10.280Z,6.43
2018-12-13T00:47:38.438Z,7.50
2018-12-13T00:50:06.596Z,6.83
2018-12-13T00:52:34.796Z,7.17
2018-12-13T00:55:02.943Z,7.80
2018-12-13T00:57:31.113Z,8.03
2018-12-13T00:59:59.313Z,7.90
2018-12-13T01:02:27.561Z,7.10
2018-12-13T01:04:55.736Z,7.83
2018-12-13T01:07:23.940Z,8.00
2018-12-13T01:09:52.084Z,7.90
2018-12-13T01:12:20.257Z,8.27
2018-12-13T01:14:48.448Z,6.80
2018-12-13T01:17:16.611Z,8.07
2018-12-13T01:19:44.778Z,7.67
2018-12-13T01:22:13.001Z,7.60
2018-12-13T01:24:41.228Z,7.57
2018-12-13T01:27:09.401Z,7.70
2018-12-13T01:29:37.651Z,7.33
2018-12-13T01:32:05.849Z,8.03
2018-12-13T01:34:34.028Z,8.07
2018-12-13T01:37:02.225Z,8.10
2018-12-13T01:39:30.481Z,8.60
2018-12-13T01:41:58.648Z,7.77
2018-12-13T01:44:27.513Z,8.37
2018-12-13T01:46:55.716Z,8.43
2018-12-13T01:49:23.889Z,7.57
2018-12-13T01:51:52.080Z,8.47
2018-12-13T01:54:20.232Z,8.57
2018-12-13T01:56:48.409Z,8.20
2018-12-13T01:59:16.600Z,8.50
2018-12-13T02:01:44.753Z,8.70
2018-12-13T02:04:12.940Z,8.07
2018-12-13T02:06:41.139Z,8.57
2018-12-13T02:09:09.378Z,8.13
2018-12-13T02:11:37.549Z,8.67
2018-12-13T02:14:05.752Z,9.23
2018-12-13T02:16:33.900Z,8.90
2018-12-13T02:19:02.075Z,9.00
2018-12-13T02:21:30.373Z,9.40
2018-12-13T02:23:58.531Z,8.80
2018-12-13T02:26:26.796Z,9.13
2018-12-13T02:28:55.036Z,9.70
2018-12-13T02:31:23.248Z,9.47
2018-12-13T02:33:51.836Z,9.40
2018-12-13T02:36:20.134Z,8.43
2018-12-13T02:38:48.385Z,8.67
2018-12-13T02:41:16.512Z,8.90
2018-12-13T02:43:44.748Z,9.47
2018-12-13T02:46:12.900Z,9.63
2018-12-13T02:48:41.076Z,10.20
2018-12-13T02:51:09.309Z,9.47
2018-12-13T02:53:37.528Z,10.17
2018-12-13T02:56:05.722Z,10.40
2018-12-13T02:58:34.004Z,10.37
2018-12-13T03:01:02.146Z,10.33
2018-12-13T03:03:30.325Z,9.60
2018-12-13T03:05:58.520Z,9.93
2018-12-13T03:08:26.675Z,10.43
2018-12-13T03:10:54.948Z,10.53
2018-12-13T03:13:23.161Z,10.10
2018-12-13T03:15:51.389Z,9.97
2018-12-13T03:18:19.565Z,11.30
2018-12-13T03:20:47.759Z,11.27
2018-12-13T03:23:15.909Z,10.33
2018-12-13T03:25:44.184Z,10.77
2018-12-13T03:28:12.385Z,10.13
2018-12-13T03:30:40.734Z,10.47
2018-12-13T03:33:08.918Z,10.80
2018-12-13T03:35:37.224Z,10.77
2018-12-13T03:38:05.465Z,12.07
2018-12-13T03:40:33.658Z,11.37
2018-12-13T03:43:01.855Z,10.70
2018-12-13T03:45:30.117Z,10.67
2018-12-13T03:47:58.364Z,11.13
2018-12-13T03:50:26.578Z,10.97
2018-12-13T03:52:54.808Z,11.00
2018-12-13T03:55:22.989Z,10.93
2018-12-13T03:57:52.060Z,11.30
2018-12-13T04:00:20.260Z,11.10
2018-12-13T04:02:48.472Z,11.40
2018-12-13T04:05:16.733Z,10.80
2018-12-13T04:07:44.970Z,10.20
2018-12-13T04:10:13.260Z,9.83
2018-12-13T04:12:41.472Z,11.07
2018-12-13T04:15:09.701Z,9.50
2018-12-13T04:17:37.905Z,11.03
2018-12-13T04:20:06.117Z,10.50
2018-12-13T04:22:34.326Z,9.77
2018-12-13T04:25:02.498Z,9.77
2018-12-13T04:27:30.697Z,10.17
2018-12-13T04:29:58.950Z,9.47
2018-12-13T04:32:27.121Z,9.53
2018-12-13T04:34:55.285Z,10.53
2018-12-13T04:37:23.469Z,11.07
2018-12-13T04:39:51.636Z,9.73
2018-12-13T04:42:19.850Z,10.40
2018-12-13T04:44:47.989Z,9.57
2018-12-13T04:47:16.330Z,9.50
2018-12-13T04:49:44.566Z,9.70
2018-12-13T04:52:12.745Z,8.33
2018-12-13T04:54:40.914Z,10.17
2018-12-13T04:57:09.113Z,11.43
2018-12-13T04:59:37.336Z,9.63
2018-12-13T05:02:05.516Z,10.10
2018-12-13T05:04:33.816Z,9.83
2018-12-13T05:07:01.969Z,10.20
2018-12-13T05:09:30.141Z,9.87
2018-12-13T05:11:59.104Z,10.53
2018-12-13T05:14:27.237Z,10.97
2018-12-13T05:16:55.468Z,10.17
2018-12-13T05:19:23.672Z,11.33
2018-12-13T05:21:51.832Z,10.27
2018-12-13T05:24:20.096Z,12.07
2018-12-13T05:26:48.304Z,11.37
2018-12-13T05:29:16.449Z,11.57
2018-12-13T05:31:44.630Z,11.73
2018-12-13T05:34:12.800Z,11.47
2018-12-13T05:36:40.974Z,11.97
2018-12-13T05:39:09.149Z,12.53
2018-12-13T05:41:37.360Z,14.00
2018-12-13T05:44:05.596Z,13.87
2018-12-13T05:46:33.764Z,13.03
2018-12-13T05:51:35.438Z,13.37
2018-12-13T05:54:03.607Z,14.07
2018-12-13T05:56:31.812Z,14.13
2018-12-13T05:59:00.057Z,16.30
2018-12-13T06:01:28.249Z,14.50
2018-12-13T06:03:56.455Z,14.57
2018-12-13T06:06:24.676Z,14.33
2018-12-13T06:08:52.849Z,14.87
2018-12-13T06:11:21.050Z,14.17
2018-12-13T06:13:49.236Z,14.47
2018-12-13T06:16:17.373Z,16.57
2018-12-13T06:18:45.581Z,15.97
2018-12-13T06:21:13.813Z,15.53
2018-12-13T06:23:41.996Z,16.13
2018-12-13T06:26:10.188Z,14.77
2018-12-13T06:28:38.346Z,16.83
2018-12-13T06:31:06.508Z,16.80
2018-12-13T06:33:34.710Z,15.40
2018-12-13T06:36:03.036Z,15.67
2018-12-13T06:38:31.232Z,15.87
2018-12-13T06:40:59.445Z,16.43
2018-12-13T06:43:27.681Z,15.80
2018-12-13T06:45:55.869Z,15.53
2018-12-13T06:48:24.056Z,15.57
2018-12-13T06:50:52.217Z,15.30
2018-12-13T06:53:20.532Z,15.37
2018-12-13T06:55:48.789Z,16.27
2018-12-13T06:58:16.929Z,16.07
2018-12-13T07:00:45.096Z,15.80
2018-12-13T07:03:13.388Z,15.97
2018-12-13T07:05:41.551Z,15.27
2018-12-13T07:08:09.729Z,15.67
2018-12-13T07:10:37.920Z,15.13
2018-12-13T07:13:06.068Z,16.23
2018-12-13T07:15:34.246Z,14.00
2018-12-13T07:18:02.443Z,16.33
2018-12-13T07:20:30.581Z,14.47
2018-12-13T07:22:58.790Z,14.07
2018-12-13T07:25:26.973Z,14.67
2018-12-13T07:27:55.105Z,15.47
2018-12-13T07:30:23.306Z,14.93
2018-12-13T07:32:51.480Z,14.80
2018-12-13T07:35:19.609Z,14.50
2018-12-13T07:37:47.797Z,15.43
2018-12-13T07:40:16.009Z,14.77
2018-12-13T07:42:44.140Z,14.57
2018-12-13T07:45:12.316Z,13.60
2018-12-13T07:47:40.529Z,13.97
2018-12-13T07:50:08.689Z,14.13
2018-12-13T07:52:36.840Z,14.30
2018-12-13T07:55:05.080Z,14.73
2018-12-13T07:57:33.292Z,14.20
2018-12-13T08:00:01.464Z,14.40
2018-12-13T08:02:29.669Z,14.23
2018-12-13T08:04:57.912Z,15.07
2018-12-13T08:07:26.080Z,15.50
2018-12-13T08:09:54.297Z,14.70
2018-12-13T08:12:22.451Z,15.13
2018-12-13T08:14:50.604Z,14.83
2018-12-13T08:17:18.948Z,15.77
2018-12-13T08:19:47.198Z,16.53
2018-12-13T08:22:15.369Z,16.23
2018-12-13T08:24:43.573Z,16.57
2018-12-13T08:27:11.817Z,14.37
2018-12-13T08:29:39.998Z,15.47
2018-12-13T08:32:08.298Z,15.83
2018-12-13T08:34:36.548Z,16.00
2018-12-13T08:37:04.812Z,17.33
2018-12-13T08:39:33.020Z,15.87
2018-12-13T08:42:01.264Z,15.60
2018-12-13T08:44:29.527Z,15.33
2018-12-13T08:46:57.747Z,14.80
2018-12-13T08:49:25.988Z,15.10
2018-12-13T08:51:54.165Z,14.67
2018-12-13T08:54:22.373Z,15.17
2018-12-13T08:56:50.613Z,17.30
2018-12-13T08:59:18.864Z,14.47
2018-12-13T09:01:47.100Z,16.27
2018-12-13T09:04:15.344Z,14.03
2018-12-13T09:06:43.508Z,14.97
2018-12-13T09:09:11.713Z,14.90
2018-12-13T09:11:39.965Z,15.53
2018-12-13T09:14:08.133Z,14.30
2018-12-13T09:16:36.456Z,15.33
2018-12-13T09:19:04.685Z,15.07
2018-12-13T09:21:32.875Z,15.50
2018-12-13T09:24:01.162Z,15.10
2018-12-13T09:26:29.408Z,15.93
2018-12-13T09:28:57.584Z,16.17
2018-12-13T09:31:25.777Z,16.20
2018-12-13T09:33:54.033Z,16.77
2018-12-13T09:36:22.196Z,16.27
2018-12-13T09:38:50.417Z,17.10
2018-12-13T09:41:18.648Z,16.20
2018-12-13T09:43:46.821Z,16.10
2018-12-13T09:46:15.138Z,17.13
2018-12-13T09:48:43.673Z,17.03
2018-12-13T09:51:11.873Z,15.90
2018-12-13T09:53:40.167Z,16.60
2018-12-13T09:56:08.408Z,16.90
2018-12-13T09:58:36.580Z,18.10
2018-12-13T10:01:04.793Z,17.93
2018-12-13T10:03:33.136Z,17.80
2018-12-13T10:06:01.309Z,15.37
2018-12-13T10:08:29.509Z,16.83
2018-12-13T10:10:57.759Z,16.60
2018-12-13T10:13:25.937Z,17.10
2018-12-13T10:15:54.132Z,17.93
2018-12-13T10:18:22.381Z,15.10
2018-12-13T10:20:50.556Z,15.90
2018-12-13T10:23:18.764Z,14.60
2018-12-13T10:25:47.011Z,18.20
2018-12-13T10:28:15.185Z,15.53
2018-12-13T10:30:43.481Z,15.23
2018-12-13T10:33:11.765Z,14.47
2018-12-13T10:35:39.926Z,13.50
2018-12-13T10:38:08.201Z,13.50
2018-12-13T10:40:36.452Z,12.93
2018-12-13T10:43:04.622Z,11.63
2018-12-13T10:45:32.930Z,13.57
2018-12-13T10:48:01.194Z,10.83
2018-12-13T10:50:29.453Z,12.57
2018-12-13T10:52:57.689Z,12.97
2018-12-13T10:55:26.015Z,12.23
2018-12-13T10:57:54.189Z,11.50
2018-12-13T11:00:27.804Z,11.07
2018-12-13T11:03:19.712Z,11.20
2018-12-13T11:05:47.939Z,12.60
2018-12-13T11:08:16.157Z,12.00
2018-12-13T11:10:44.336Z,11.63
2018-12-13T11:13:12.534Z,13.17
2018-12-13T11:15:40.787Z,11.83
2018-12-13T11:18:09.065Z,12.93
2018-12-13T11:20:37.253Z,12.63
2018-12-13T11:23:05.520Z,11.13
2018-12-13T11:25:33.891Z,11.63
2018-12-13T11:28:14.373Z,12.50
2018-12-13T11:30:42.629Z,12.30
2018-12-13T11:33:10.793Z,11.77
2018-12-13T11:35:38.977Z,12.33
2018-12-13T11:38:07.144Z,11.63
2018-12-13T11:40:35.324Z,12.10
2018-12-13T11:43:03.539Z,11.60
2018-12-13T11:45:31.901Z,11.77
2018-12-13T11:48:00.164Z,12.07
2018-12-13T11:50:28.457Z,12.60
2018-12-13T11:52:56.705Z,11.27
2018-12-13T11:55:33.877Z,12.13
2018-12-13T11:58:02.517Z,11.80
2018-12-13T12:00:30.736Z,12.03
2018-12-13T12:02:58.949Z,11.83
2018-12-13T12:05:27.227Z,11.37
2018-12-13T12:07:55.485Z,11.47
2018-12-13T12:10:23.782Z,11.77
2018-12-13T12:12:52.040Z,12.37
2018-12-13T12:15:20.292Z,10.63
2018-12-13T12:17:48.598Z,11.50
2018-12-13T12:20:16.850Z,12.03
2018-12-13T12:22:45.020Z,11.30
2018-12-13T12:25:13.240Z,12.00
2018-12-13T12:27:41.493Z,11.07
2018-12-13T12:30:09.752Z,12.20
2018-12-13T12:33:41.429Z,11.70
2018-12-13T12:36:09.593Z,10.60
2018-12-13T12:38:37.864Z,10.50
2018-12-13T12:41:06.084Z,10.93
2018-12-13T12:43:34.313Z,11.60
2018-12-13T12:46:02.589Z,11.20
2018-12-13T12:48:30.877Z,10.30
2018-12-13T12:50:59.124Z,11.40
2018-12-13T12:53:27.306Z,10.80
2018-12-13T12:55:55.617Z,10.93
2018-12-13T12:58:23.916Z,11.20
2018-12-13T13:00:52.166Z,12.63
2018-12-13T13:03:20.428Z,12.30
2018-12-13T13:05:48.884Z,12.67
2018-12-13T13:08:17.064Z,13.60
2018-12-13T13:10:45.263Z,16.67
2018-12-13T13:13:13.504Z,15.03
2018-12-13T13:15:41.764Z,13.50
2018-12-13T13:18:10.005Z,12.90
2018-12-13T13:20:38.245Z,14.83
2018-12-13T13:23:06.408Z,10.73
2018-12-13T13:25:34.918Z,12.40
2018-12-13T13:28:03.165Z,12.67
2018-12-13T13:30:31.380Z,10.87
2018-12-13T13:32:59.697Z,13.53
2018-12-13T13:35:27.889Z,12.63
2018-12-13T13:37:56.066Z,12.27
2018-12-13T13:40:24.300Z,16.00
2018-12-13T13:42:52.529Z,15.00
2018-12-13T13:45:21.201Z,11.47
2018-12-13T13:47:49.501Z,13.00
2018-12-13T13:50:17.761Z,13.27
2018-12-13T13:52:45.941Z,11.57
2018-12-13T13:55:14.132Z,10.83
2018-12-13T13:57:42.365Z,10.67
2018-12-13T14:00:10.544Z,11.30
2018-12-13T14:02:38.752Z,10.97
2018-12-13T14:05:07.001Z,10.70
2018-12-13T14:07:35.265Z,12.30
2018-12-13T14:10:03.580Z,12.33
2018-12-13T14:13:34.901Z,12.87
2018-12-13T14:16:03.100Z,11.07
2018-12-13T14:18:32.277Z,11.30
2018-12-13T14:21:00.474Z,11.63
2018-12-13T14:23:28.765Z,12.57
2018-12-13T14:25:57.092Z,12.30
2018-12-13T14:28:25.268Z,11.67
2018-12-13T14:30:53.478Z,13.73
2018-12-13T14:33:21.726Z,12.80
2018-12-13T14:35:49.889Z,13.53
2018-12-13T14:38:18.092Z,13.47
2018-12-13T14:40:46.232Z,13.60
2018-12-13T14:43:14.404Z,13.27
2018-12-13T14:45:42.668Z,13.30
2018-12-13T14:48:10.961Z,14.63
2018-12-13T14:50:39.241Z,14.70
2018-12-13T14:53:07.435Z,20.40
2018-12-13T14:55:35.684Z,14.10
2018-12-13T14:58:03.869Z,16.40
2018-12-13T15:00:32.125Z,15.83
2018-12-13T15:03:00.317Z,16.13
2018-12-13T15:05:28.493Z,16.30
2018-12-13T15:07:56.729Z,15.27
2018-12-13T15:10:24.953Z,15.30
2018-12-13T15:12:53.217Z,15.53
2018-12-13T15:15:21.508Z,14.90
2018-12-13T15:17:49.835Z,15.60
2018-12-13T15:20:18.153Z,15.83
2018-12-13T15:22:46.362Z,15.40
2018-12-13T15:25:14.593Z,16.80
2018-12-13T15:27:42.778Z,16.57
2018-12-13T15:30:11.013Z,14.83
2018-12-13T15:32:39.229Z,13.77
2018-12-13T15:35:07.380Z,15.47
2018-12-13T15:37:35.560Z,14.90
2018-12-13T15:40:03.740Z,16.13
2018-12-13T15:42:31.923Z,14.53
2018-12-13T15:45:00.118Z,15.90
2018-12-13T15:47:28.401Z,15.20
2018-12-13T15:49:56.637Z,15.23
2018-12-13T15:52:24.843Z,15.17
2018-12-13T15:54:53.090Z,15.90
2018-12-13T15:57:21.362Z,14.90
2018-12-13T15:59:49.557Z,16.57
2018-12-13T16:02:17.810Z,16.67
2018-12-13T16:04:46.089Z,14.87
2018-12-13T16:07:14.285Z,17.97
2018-12-13T16:09:42.549Z,16.00
2018-12-13T16:12:10.833Z,16.33
2018-12-13T16:14:39.162Z,18.50
2018-12-13T16:17:07.364Z,16.27
2018-12-13T16:19:35.544Z,16.37
2018-12-13T16:22:03.853Z,16.90
2018-12-13T16:24:32.076Z,17.37
2018-12-13T16:27:00.267Z,16.63
2018-12-13T16:29:28.462Z,18.10
2018-12-13T16:31:56.708Z,16.93
2018-12-13T16:34:24.896Z,17.03
2018-12-13T16:36:53.197Z,16.83
2018-12-13T16:39:21.469Z,17.07
2018-12-13T16:41:49.722Z,17.17
2018-12-13T16:44:18.260Z,16.93
2018-12-13T16:46:46.500Z,17.23
2018-12-13T16:49:14.752Z,16.37
2018-12-13T16:51:43.057Z,17.17
2018-12-13T16:54:11.329Z,17.27
2018-12-13T16:56:40.512Z,17.27
2018-12-13T16:59:08.809Z,19.57
2018-12-13T17:01:37.053Z,17.83
2018-12-13T17:04:05.315Z,18.50
2018-12-13T17:06:33.537Z,18.87
2018-12-13T17:09:01.858Z,17.87
2018-12-13T17:11:30.066Z,16.40
2018-12-13T17:13:58.352Z,17.93
2018-12-13T17:16:26.613Z,18.67
2018-12-13T17:18:54.821Z,18.33
2018-12-13T17:21:23.076Z,18.63
2018-12-13T17:23:51.326Z,19.63
2018-12-13T17:26:19.505Z,17.50
2018-12-13T17:28:47.700Z,19.33
2018-12-13T17:31:15.847Z,18.83
2018-12-13T17:33:44.021Z,17.00
2018-12-13T17:36:12.261Z,17.37
2018-12-13T17:38:40.428Z,19.87
2018-12-13T17:41:08.648Z,18.40
2018-12-13T17:43:36.857Z,17.73
2018-12-13T17:46:05.088Z,18.50
2018-12-13T17:48:33.355Z,19.03
2018-12-13T17:51:01.677Z,18.87
2018-12-13T17:53:29.922Z,21.60
2018-12-13T17:55:58.089Z,18.10
2018-12-13T17:58:26.316Z,20.47
2018-12-13T18:00:54.541Z,18.87
2018-12-13T18:03:22.717Z,19.40
2018-12-13T18:05:50.969Z,18.70
2018-12-13T18:08:19.215Z,19.23
2018-12-13T18:10:47.603Z,19.27
2018-12-13T18:13:15.883Z,18.90
2018-12-13T18:15:44.140Z,18.53
2018-12-13T18:18:12.381Z,18.70
2018-12-13T18:20:40.605Z,18.30
2018-12-13T18:23:08.836Z,18.00
2018-12-13T18:25:37.132Z,17.90
2018-12-13T18:28:05.423Z,19.23
2018-12-13T18:30:33.676Z,19.97
2018-12-13T18:33:01.940Z,19.63
2018-12-13T18:35:30.229Z,20.30
2018-12-13T18:37:58.413Z,19.37
2018-12-13T18:40:26.677Z,20.07
2018-12-13T18:42:54.966Z,20.23
2018-12-13T18:45:24.076Z,20.07
2018-12-13T18:47:52.440Z,20.60
2018-12-13T18:50:20.839Z,19.13
2018-12-13T18:52:49.174Z,20.53
2018-12-13T18:55:17.450Z,20.07
2018-12-13T18:57:45.785Z,18.67
2018-12-13T19:00:14.005Z,17.60
2018-12-13T19:02:42.665Z,19.97
2018-12-13T19:05:10.883Z,19.67
2018-12-13T19:07:39.395Z,19.90
2018-12-13T19:10:07.620Z,19.67
2018-12-13T19:12:35.893Z,18.27
2018-12-13T19:15:04.930Z,20.53
2018-12-13T19:17:33.188Z,17.90
2018-12-13T19:20:01.450Z,18.97
2018-12-13T19:22:29.715Z,19.73
2018-12-13T19:24:57.893Z,21.43
2018-12-13T19:27:26.185Z,18.73
2018-12-13T19:29:54.730Z,17.93
2018-12-13T19:32:23.034Z,19.70
2018-12-13T19:34:52.120Z,20.90
2018-12-13T19:37:20.368Z,19.73
2018-12-13T19:39:48.549Z,18.23
2018-12-13T19:43:45.992Z,18.40
2018-12-13T19:46:14.169Z,17.70
2018-12-13T19:48:42.414Z,17.93
2018-12-13T19:51:10.851Z,18.50
2018-12-13T19:53:39.209Z,19.23
2018-12-13T19:56:07.417Z,17.13
2018-12-13T19:58:35.689Z,18.47
2018-12-13T20:01:03.936Z,18.50
2018-12-13T20:03:32.100Z,19.10
2018-12-13T20:06:00.324Z,18.57
2018-12-13T20:08:28.585Z,19.20
2018-12-13T20:10:56.936Z,18.67
2018-12-13T20:13:25.140Z,20.37
2018-12-13T20:15:53.383Z,17.50
2018-12-13T20:18:21.586Z,20.23
2018-12-13T20:20:49.941Z,17.57
2018-12-13T20:23:18.128Z,19.03
2018-12-13T20:25:46.389Z,17.53
2018-12-13T20:28:14.701Z,19.80
2018-12-13T20:30:43.252Z,18.93
2018-12-13T20:33:11.421Z,19.03
2018-12-13T20:35:39.622Z,17.87
2018-12-13T20:38:07.868Z,19.80
2018-12-13T20:40:36.060Z,19.13
2018-12-13T20:43:04.356Z,19.10
2018-12-13T20:45:32.592Z,17.80
2018-12-13T20:48:00.764Z,19.40
2018-12-13T20:50:28.972Z,19.23
2018-12-13T20:52:57.217Z,18.83
2018-12-13T20:55:25.498Z,19.90
2018-12-13T20:57:53.701Z,21.33
2018-12-13T21:00:22.004Z,19.97
2018-12-13T21:02:50.213Z,18.43
2018-12-13T21:05:18.409Z,18.83
2018-12-13T21:07:47.011Z,19.40
2018-12-13T21:10:15.343Z,19.93
2018-12-13T21:12:43.666Z,19.20
2018-12-13T21:15:11.904Z,18.37
2018-12-13T21:17:40.076Z,18.80
2018-12-13T21:20:08.378Z,17.50
2018-12-13T21:22:36.620Z,17.47
2018-12-13T21:25:04.830Z,17.97
2018-12-13T21:27:33.092Z,19.57
2018-12-13T21:30:01.344Z,18.50
2018-12-13T21:32:29.524Z,17.57
2018-12-13T21:34:57.832Z,16.33
2018-12-13T21:37:25.969Z,18.17
2018-12-13T21:39:54.117Z,17.47
2018-12-13T21:42:22.354Z,17.13
2018-12-13T21:44:50.601Z,16.23
2018-12-13T21:47:18.769Z,17.67
2018-12-13T21:49:46.964Z,17.57
2018-12-13T21:52:15.213Z,16.53
2018-12-13T21:54:43.493Z,17.23
2018-12-13T21:57:12.098Z,16.37
2018-12-13T21:59:40.372Z,17.80
2018-12-13T22:02:08.633Z,17.27
2018-12-13T22:04:36.835Z,16.53
2018-12-13T22:07:05.125Z,18.53
2018-12-13T22:09:33.369Z,17.67
2018-12-13T22:12:01.532Z,15.90
2018-12-13T22:14:29.669Z,15.60
2018-12-13T22:16:57.837Z,16.33
2018-12-13T22:19:26.052Z,15.03
2018-12-13T22:21:54.204Z,16.03
2018-12-13T22:24:22.969Z,15.83
2018-12-13T22:26:51.186Z,16.50
2018-12-13T22:29:19.320Z,16.53
2018-12-13T22:31:47.676Z,17.23
2018-12-13T22:34:15.913Z,16.00
2018-12-13T22:36:44.049Z,15.80
2018-12-13T22:39:12.157Z,15.23
2018-12-13T22:41:40.318Z,15.83
2018-12-13T22:44:08.507Z,15.20
2018-12-13T22:46:36.645Z,13.97
2018-12-13T22:49:04.873Z,16.00
2018-12-13T22:53:02.388Z,15.67
2018-12-13T22:55:30.721Z,13.57
2018-12-13T22:57:58.940Z,14.37
2018-12-13T23:00:27.226Z,15.13
2018-12-13T23:02:55.416Z,14.83
2018-12-13T23:05:23.568Z,15.13
2018-12-13T23:07:51.827Z,17.73
2018-12-13T23:10:20.033Z,15.40
2018-12-13T23:12:48.280Z,14.87
2018-12-13T23:15:16.519Z,15.87
2018-12-13T23:17:45.873Z,15.37
2018-12-13T23:20:25.311Z,15.77
2018-12-13T23:22:53.641Z,16.83
2018-12-13T23:25:21.840Z,16.20
2018-12-13T23:27:50.013Z,15.47
2018-12-13T23:30:18.212Z,16.23
2018-12-13T23:32:46.738Z,15.67
2018-12-13T23:35:14.941Z,16.20
2018-12-13T23:37:43.149Z,15.33
2018-12-13T23:40:11.256Z,16.23
2018-12-13T23:42:39.460Z,15.57
2018-12-13T23:45:07.671Z,15.40
2018-12-13T23:47:35.817Z,15.17
2018-12-13T23:50:04.085Z,15.47
2018-12-13T23:52:32.303Z,15.63
2018-12-13T23:55:00.546Z,14.60
2018-12-13T23:57:28.705Z,15.43
2018-12-13T23:59:56.904Z,13.73
